Time;durP1;ratioP1;P1;durP2;ratioP2;P2;SDS_P1;SDS_P2;PMS_P1;PMS_P2;Temp;Humidity;BMP_temperature;BMP_pressure;BME280_temperature;BME280_humidity;BME280_pressure;Samples;Min_cycle;Max_cycle;Signal;HPM_P1;HPM_P2
2023/12/13 00:02:09;;;;;;;44.30;24.85;;;;;;;3.97;100.00;99638.06;5087806;56;1138847;-81
2023/12/13 00:07:14;;;;;;;57.43;27.73;;;;;;;3.93;100.00;99628.73;5084323;56;1140951;-81
2023/12/13 00:12:20;;;;;;;51.20;25.30;;;;;;;3.91;100.00;99618.83;4972508;57;1141482;-81
2023/12/13 00:17:25;;;;;;;47.70;25.80;;;;;;;3.92;100.00;99621.82;5030191;56;1141031;-81
2023/12/13 00:22:32;;;;;;;43.93;23.07;;;;;;;3.94;100.00;99615.19;5076935;56;1140779;-81
2023/12/13 00:27:38;;;;;;;46.30;24.90;;;;;;;3.96;100.00;99602.38;5061431;56;1141097;-81
2023/12/13 00:32:43;;;;;;;40.00;22.60;;;;;;;4.00;100.00;99605.61;5068086;56;1140892;-81
2023/12/13 00:37:49;;;;;;;37.80;21.77;;;;;;;4.02;100.00;99604.58;5037690;56;1141101;-82
2023/12/13 00:42:55;;;;;;;42.20;20.97;;;;;;;4.04;100.00;99600.55;4972147;57;1140896;-81
2023/12/13 00:48:01;;;;;;;39.50;22.17;;;;;;;4.05;100.00;99591.77;4983581;57;1140948;-81
2023/12/13 00:53:07;;;;;;;41.60;22.43;;;;;;;4.01;100.00;99596.83;4964469;57;1138914;-82
2023/12/13 00:58:13;;;;;;;37.50;19.90;;;;;;;3.97;100.00;99590.14;4918128;57;1138691;-81
2023/12/13 01:03:18;;;;;;;37.23;20.60;;;;;;;3.93;100.00;99580.80;4963856;57;1140977;-82
2023/12/13 01:08:24;;;;;;;33.00;19.53;;;;;;;3.92;100.00;99586.97;5011044;57;1140950;-81
2023/12/13 01:13:30;;;;;;;35.40;21.30;;;;;;;3.94;100.00;99586.41;5067039;57;1140865;-81
2023/12/13 01:18:36;;;;;;;33.25;18.40;;;;;;;3.98;100.00;99582.16;5082295;56;1140776;-81
2023/12/13 01:23:41;;;;;;;37.90;20.13;;;;;;;4.00;100.00;99584.21;5130122;56;1140900;-81
2023/12/13 01:28:47;;;;;;;34.30;19.97;;;;;;;4.01;100.00;99578.52;5042264;57;1138737;-81
2023/12/13 01:33:53;;;;;;;36.73;20.00;;;;;;;3.96;100.00;99568.38;5016507;56;1138718;-81
2023/12/13 01:38:58;;;;;;;36.10;20.07;;;;;;;3.91;100.00;99564.37;5022617;56;1138620;-81
2023/12/13 01:44:05;;;;;;;34.38;19.05;;;;;;;3.89;100.00;99564.00;5023241;56;1140943;-80
2023/12/13 01:49:12;;;;;;;36.30;20.10;;;;;;;3.90;100.00;99567.45;5125428;56;1141140;-81
2023/12/13 01:54:19;;;;;;;46.33;21.13;;;;;;;3.91;100.00;99566.52;5063749;56;1140966;-81
2023/12/13 01:59:24;;;;;;;39.33;22.53;;;;;;;3.95;100.00;99568.00;5137891;56;1141022;-81
2023/12/13 02:04:31;;;;;;;42.13;22.15;;;;;;;3.96;100.00;99558.37;5158973;56;1138510;-81
2023/12/13 02:09:36;;;;;;;39.33;21.40;;;;;;;3.92;100.00;99564.73;5138691;56;1138937;-81
2023/12/13 02:14:42;;;;;;;44.93;23.23;;;;;;;3.88;100.00;99558.39;5138613;56;1140758;-82
2023/12/13 02:19:48;;;;;;;40.67;21.03;;;;;;;3.89;100.00;99560.07;5158856;56;1140705;-82
2023/12/13 02:24:55;;;;;;;41.73;21.27;;;;;;;3.88;100.00;99553.16;5116444;56;1140887;-81
2023/12/13 02:30:01;;;;;;;42.87;22.73;;;;;;;3.85;100.00;99548.12;5096706;56;1141045;-81
2023/12/13 02:35:07;;;;;;;43.98;23.15;;;;;;;3.84;100.00;99542.99;5132951;56;1140881;-82
2023/12/13 02:40:14;;;;;;;52.20;26.02;;;;;;;3.80;100.00;99534.53;5153043;56;1138835;-82
2023/12/13 02:45:20;;;;;;;51.57;25.07;;;;;;;3.77;100.00;99526.88;5133082;56;1138721;-82
2023/12/13 02:50:26;;;;;;;53.42;26.57;;;;;;;3.77;100.00;99523.43;5078167;56;1138748;-81
2023/12/13 02:55:31;;;;;;;46.07;23.80;;;;;;;3.74;100.00;99519.23;5067355;56;1140936;-82
2023/12/13 03:00:37;;;;;;;49.40;25.00;;;;;;;3.74;100.00;99515.78;5047942;57;1141207;-81
2023/12/13 03:05:42;;;;;;;48.83;23.50;;;;;;;3.75;100.00;99509.61;5120988;56;1141017;-81
2023/12/13 03:10:48;;;;;;;48.73;25.13;;;;;;;3.75;100.00;99507.84;5153334;56;1140749;-81
2023/12/13 03:15:53;;;;;;;51.23;23.30;;;;;;;3.77;100.00;99505.96;5132796;56;1140985;-81
2023/12/13 03:20:59;;;;;;;45.80;24.57;;;;;;;3.78;100.00;99508.95;5132262;56;1140919;-81
2023/12/13 03:26:05;;;;;;;44.43;24.50;;;;;;;3.76;100.00;99496.91;5132037;56;1139240;-81
2023/12/13 03:31:11;;;;;;;50.12;24.85;;;;;;;3.71;100.00;99499.81;5153440;56;1138648;-81
2023/12/13 03:36:17;;;;;;;50.23;24.40;;;;;;;3.68;100.00;99497.39;5133336;56;1139201;-81
2023/12/13 03:41:23;;;;;;;55.60;26.13;;;;;;;3.66;100.00;99494.54;5132090;56;1140967;-81
2023/12/13 03:46:29;;;;;;;53.30;27.63;;;;;;;3.69;100.00;99500.38;5152686;56;1140958;-81
2023/12/13 03:51:34;;;;;;;52.67;26.67;;;;;;;3.71;100.00;99494.58;5092897;56;1140977;-81
2023/12/13 03:56:40;;;;;;;51.98;26.30;;;;;;;3.70;100.00;99487.67;5087685;56;1140940;-81
2023/12/13 04:01:46;;;;;;;47.77;24.63;;;;;;;3.70;100.00;99484.22;5132789;56;1140879;-81
2023/12/13 04:06:51;;;;;;;52.47;25.50;;;;;;;3.68;100.00;99483.02;5112869;56;1140845;-81
2023/12/13 04:11:58;;;;;;;58.28;28.12;;;;;;;3.66;100.00;99488.00;5129079;56;1139062;-80
2023/12/13 04:17:04;;;;;;;64.80;31.75;;;;;;;3.65;100.00;99508.55;5107311;56;1138956;-81
2023/12/13 04:22:09;;;;;;;57.13;28.50;;;;;;;3.65;100.00;99496.31;5104352;56;1138942;-81
2023/12/13 04:27:15;;;;;;;48.40;26.15;;;;;;;3.63;100.00;99497.34;5109922;56;1140974;-81
2023/12/13 04:32:20;;;;;;;73.20;32.90;;;;;;;3.59;100.00;99481.02;5076962;56;1141141;-81
2023/12/13 04:37:26;;;;;;;52.67;24.87;;;;;;;3.59;100.00;99488.86;4998503;57;1140735;-81
2023/12/13 04:42:32;;;;;;;47.00;22.63;;;;;;;3.63;100.00;99483.80;4969072;58;1141322;-81
2023/12/13 04:47:37;;;;;;;56.57;28.13;;;;;;;3.64;100.00;99479.41;4972220;57;1141506;-82
2023/12/13 04:52:43;;;;;;;51.90;24.70;;;;;;;3.67;100.00;99474.80;5076718;56;1141015;-81
2023/12/13 04:57:48;;;;;;;55.33;26.33;;;;;;;3.62;100.00;99449.45;4987619;57;1138838;-81
2023/12/13 05:02:54;;;;;;;61.03;27.63;;;;;;;3.59;100.00;99448.80;4974617;57;1138590;-80
2023/12/13 05:08:00;;;;;;;59.30;30.60;;;;;;;3.53;100.00;99438.27;5015242;57;1143924;-81
2023/12/13 05:13:05;;;;;;;45.12;24.87;;;;;;;3.49;100.00;99432.43;5049502;55;1138970;-82
2023/12/13 05:18:11;;;;;;;47.73;21.82;;;;;;;3.47;100.00;99421.23;5084832;56;1140799;-82
2023/12/13 05:23:16;;;;;;;44.10;22.13;;;;;;;3.47;100.00;99412.55;5161105;56;1140853;-81
2023/12/13 05:28:22;;;;;;;41.90;20.90;;;;;;;3.45;100.00;99396.97;5052985;56;1140987;-81
2023/12/13 05:33:28;;;;;;;42.60;21.87;;;;;;;3.45;100.00;99401.36;5031269;56;1140768;-81
2023/12/13 05:38:33;;;;;;;46.13;23.07;;;;;;;3.43;100.00;99398.84;5106246;56;1140995;-81
2023/12/13 05:43:39;;;;;;;44.23;22.63;;;;;;;3.46;100.00;99400.42;5112793;56;1140899;-82
2023/12/13 05:48:45;;;;;;;59.87;27.33;;;;;;;3.45;100.00;99386.52;5043154;56;1140928;-80
2023/12/13 05:53:56;;;;;;;55.17;25.87;;;;;;;3.46;100.00;99389.97;4970511;56;1141119;-79
2023/12/13 05:59:02;;;;;;;51.00;24.20;;;;;;;3.45;100.00;99385.67;5104603;56;1141054;-81
2023/12/13 06:04:07;;;;;;;43.08;21.17;;;;;;;3.46;100.00;99394.72;5004906;56;1150593;-81
2023/12/13 06:09:14;;;;;;;58.93;29.57;;;;;;;3.48;100.00;99398.08;5138299;56;1140910;-80
2023/12/13 06:14:19;;;;;;;53.77;27.17;;;;;;;3.45;100.00;99394.36;5085631;56;1141097;-81
2023/12/13 06:19:29;;;;;;;44.70;21.97;;;;;;;3.47;100.00;99400.80;4948713;55;1140633;-81
2023/12/13 06:24:32;;;;;;;42.27;20.93;;;;;;;3.46;100.00;99393.42;5096146;56;1141051;-81
2023/12/13 06:29:38;;;;;;;49.63;21.33;;;;;;;3.46;100.00;99395.20;5041466;56;1140694;-80
2023/12/13 06:34:43;;;;;;;44.93;20.83;;;;;;;3.42;100.00;99382.80;5119304;56;1140896;-80
2023/12/13 06:39:49;;;;;;;47.80;23.47;;;;;;;3.41;100.00;99382.42;5086622;56;1140978;-80
2023/12/13 06:44:55;;;;;;;48.70;24.97;;;;;;;3.43;100.00;99386.24;5054573;57;1163847;-80
2023/12/13 06:50:01;;;;;;;48.83;26.03;;;;;;;3.46;100.00;99382.13;5107431;55;1140839;-79
2023/12/13 06:55:07;;;;;;;56.70;27.32;;;;;;;3.46;100.00;99392.11;5147630;55;1140677;-80
2023/12/13 07:00:13;;;;;;;52.33;24.15;;;;;;;3.48;100.00;99389.40;5160403;56;1141076;-80
2023/12/13 07:05:19;;;;;;;49.07;24.10;;;;;;;3.48;100.00;99388.93;5139780;56;1140783;-80
2023/12/13 07:10:28;;;;;;;55.53;26.03;;;;;;;3.47;100.00;99382.03;5109580;55;1140901;-80
2023/12/13 07:15:32;;;;;;;58.73;26.27;;;;;;;3.49;100.00;99372.78;5075304;55;1140863;-79
2023/12/13 07:20:38;;;;;;;63.90;28.70;;;;;;;3.44;100.00;99365.23;5052427;56;1138852;-80
2023/12/13 07:25:44;;;;;;;61.27;27.53;;;;;;;3.45;100.00;99362.99;5088391;56;1141245;-80
2023/12/13 07:30:50;;;;;;;64.57;29.33;;;;;;;3.46;100.00;99364.67;5158476;56;1140980;-80
2023/12/13 07:35:55;;;;;;;55.33;27.13;;;;;;;3.48;100.00;99356.73;5138006;56;1140714;-80
2023/12/13 07:41:02;;;;;;;59.10;27.27;;;;;;;3.50;100.00;99358.30;5119898;56;1140761;-80
2023/12/13 07:46:08;;;;;;;59.42;27.93;;;;;;;3.55;100.00;99371.05;5082858;56;1141252;-79
2023/12/13 07:51:14;;;;;;;48.80;24.85;;;;;;;3.57;100.00;99361.80;5049699;56;1140944;-80
2023/12/13 07:56:21;;;;;;;56.70;27.70;;;;;;;3.60;100.00;99360.28;4997217;56;1177529;-80
2023/12/13 08:01:26;;;;;;;57.03;26.45;;;;;;;3.62;100.00;99361.02;5033202;57;1242075;-80
2023/12/13 08:06:32;;;;;;;64.83;27.33;;;;;;;3.64;100.00;99356.06;5033767;57;1254209;-80
2023/12/13 08:11:38;;;;;;;57.90;27.93;;;;;;;3.67;100.00;99351.07;4997725;57;1241255;-80
2023/12/13 08:16:44;;;;;;;55.00;25.30;;;;;;;3.71;100.00;99343.39;5012043;56;1238457;-80
2023/12/13 08:21:51;;;;;;;60.03;27.40;;;;;;;3.71;100.00;99349.93;4948033;57;1141077;-80
2023/12/13 08:26:57;;;;;;;57.00;28.50;;;;;;;3.75;100.00;99364.01;4998102;56;1244988;-80
2023/12/13 08:32:02;;;;;;;57.30;28.33;;;;;;;3.81;100.00;99376.68;5016805;57;1184970;-80
2023/12/13 08:37:08;;;;;;;62.98;28.40;;;;;;;3.86;100.00;99368.50;5039988;56;1238733;-80
2023/12/13 08:42:13;;;;;;;145.82;53.05;;;;;;;3.90;100.00;99363.43;5057612;56;1252045;-79
2023/12/13 08:47:21;;;;;;;65.65;34.03;;;;;;;3.97;100.00;99355.55;5085767;56;1251021;-80
2023/12/13 08:52:26;;;;;;;108.10;43.73;;;;;;;4.00;100.00;99358.39;5094545;55;1236729;-80
2023/12/13 08:57:32;;;;;;;94.60;36.70;;;;;;;4.03;100.00;99364.73;5086544;56;1253719;-80
2023/12/13 09:02:37;;;;;;;77.63;36.47;;;;;;;4.04;100.00;99358.55;5060948;55;1242901;-80
2023/12/13 09:07:43;;;;;;;107.47;50.57;;;;;;;4.08;100.00;99357.41;5051752;56;1250630;-79
2023/12/13 09:12:48;;;;;;;64.20;33.60;;;;;;;4.10;100.00;99362.06;5079582;55;1143218;-80
2023/12/13 09:17:54;;;;;;;55.90;27.90;;;;;;;4.12;100.00;99353.64;5139724;55;1252202;-80
2023/12/13 09:23:00;;;;;;;58.03;25.20;;;;;;;4.13;100.00;99344.35;5119977;55;1221556;-80
2023/12/13 09:28:07;;;;;;;53.92;25.72;;;;;;;4.17;100.00;99346.29;5071551;56;1141089;-80
2023/12/13 09:33:13;;;;;;;51.42;25.50;;;;;;;4.10;100.00;99326.74;5000190;57;1141311;-80
2023/12/13 09:38:19;;;;;;;57.57;25.27;;;;;;;4.26;100.00;99348.75;4968109;57;1140902;-80
2023/12/13 09:43:26;;;;;;;55.57;24.87;;;;;;;4.28;100.00;99341.12;4968006;57;1181712;-80
2023/12/13 09:48:34;;;;;;;50.60;24.90;;;;;;;4.35;100.00;99343.69;5024143;56;1194607;-80
2023/12/13 09:53:40;;;;;;;63.77;28.13;;;;;;;4.42;100.00;99341.02;5109089;56;1141147;-79
2023/12/13 09:58:47;;;;;;;52.63;27.03;;;;;;;4.46;100.00;99337.22;5025884;55;1252160;-80
2023/12/13 10:03:52;;;;;;;53.77;25.03;;;;;;;4.48;100.00;99343.66;5161323;55;1175916;-80
2023/12/13 10:08:58;;;;;;;59.80;27.23;;;;;;;4.47;100.00;99344.13;5127952;55;1141149;-80
2023/12/13 10:14:05;;;;;;;58.55;27.22;;;;;;;4.47;100.00;99342.81;5099717;56;1141005;-80
2023/12/13 10:19:11;;;;;;;66.33;28.13;;;;;;;4.51;100.00;99342.12;5107703;55;1141031;-80
2023/12/13 10:24:21;;;;;;;61.45;27.40;;;;;;;4.54;100.00;99339.30;5157496;55;1140830;-80
2023/12/13 10:29:27;;;;;;;67.37;30.80;;;;;;;4.51;100.00;99325.95;5088613;56;1140906;-80
2023/12/13 10:34:33;;;;;;;63.63;30.47;;;;;;;4.51;100.00;99325.95;5109408;56;1140879;-80
2023/12/13 10:39:39;;;;;;;65.77;31.60;;;;;;;4.55;100.00;99330.50;5129434;56;1141236;-80
2023/12/13 10:44:47;;;;;;;62.93;29.23;;;;;;;4.56;100.00;99325.16;5109229;56;1141263;-79
2023/12/13 10:49:55;;;;;;;58.47;29.80;;;;;;;4.58;100.00;99323.23;5075112;55;1140926;-80
2023/12/13 10:55:01;;;;;;;54.27;25.20;;;;;;;4.62;100.00;99324.33;5148771;55;1140872;-80
2023/12/13 11:00:09;;;;;;;77.10;37.10;;;;;;;4.65;100.00;99326.73;5029324;56;1141002;-80
2023/12/13 11:05:15;;;;;;;59.90;30.35;;;;;;;4.64;100.00;99319.35;5029256;55;1140964;-80
2023/12/13 11:10:22;;;;;;;59.60;28.35;;;;;;;4.63;100.00;99308.98;5151451;55;1138822;-80
2023/12/13 11:15:29;;;;;;;55.83;27.47;;;;;;;4.64;100.00;99308.04;5168831;55;1141063;-80
2023/12/13 11:20:38;;;;;;;56.60;27.93;;;;;;;4.65;100.00;99304.48;5167491;55;1140902;-80
2023/12/13 11:25:49;;;;;;;63.10;29.70;;;;;;;4.66;100.00;99297.82;5162237;55;1140812;-80
2023/12/13 11:30:58;;;;;;;57.90;29.50;;;;;;;4.65;100.00;99299.23;5113073;55;1140719;-80
2023/12/13 11:36:12;;;;;;;68.67;34.03;;;;;;;4.63;100.00;99299.34;5101464;55;1140836;-80
2023/12/13 11:41:18;;;;;;;57.15;28.05;;;;;;;4.65;100.00;99294.84;5082174;56;1140893;-80
2023/12/13 11:46:25;;;;;;;65.40;32.23;;;;;;;4.67;100.00;99289.02;5158615;55;1141010;-80
2023/12/13 11:51:31;;;;;;;77.23;36.90;;;;;;;4.68;100.00;99289.86;5122842;55;1140948;-80
2023/12/13 11:56:36;;;;;;;84.00;37.17;;;;;;;4.69;100.00;99286.30;5108552;55;1141174;-80
2023/12/13 12:01:42;;;;;;;101.58;45.98;;;;;;;4.71;100.00;99282.62;5162477;55;1140927;-80
2023/12/13 12:06:50;;;;;;;98.23;47.90;;;;;;;4.71;100.00;99290.95;5139979;55;1142924;-80
2023/12/13 12:11:57;;;;;;;89.40;42.33;;;;;;;4.69;100.00;99283.20;5057477;55;1140773;-80
2023/12/13 12:17:04;;;;;;;70.03;35.60;;;;;;;4.71;100.00;99277.85;5058394;55;1140866;-80
2023/12/13 12:22:14;;;;;;;73.83;38.67;;;;;;;4.57;100.00;99263.16;5114136;55;1150091;-80
2023/12/13 12:27:26;;;;;;;81.97;39.60;;;;;;;4.74;100.00;99279.75;5099336;56;1141046;-80
2023/12/13 12:32:32;;;;;;;63.87;29.30;;;;;;;4.73;100.00;99279.42;5110822;56;1138936;-80
2023/12/13 12:37:37;;;;;;;64.33;34.37;;;;;;;4.71;100.00;99281.31;5128661;55;1140890;-80
2023/12/13 12:42:45;;;;;;;75.37;39.80;;;;;;;4.68;100.00;99284.62;5040700;56;1141488;-78
2023/12/13 12:47:50;;;;;;;75.03;33.67;;;;;;;4.68;100.00;99284.14;5084091;55;1140891;-78
2023/12/13 12:52:56;;;;;;;86.10;37.17;;;;;;;4.70;100.00;99285.34;5155532;55;1141124;-80
2023/12/13 12:58:03;;;;;;;70.63;34.47;;;;;;;4.69;100.00;99279.27;5131528;55;1141096;-80
2023/12/13 13:03:08;;;;;;;68.40;34.20;;;;;;;4.68;100.00;99274.98;5133823;55;1145237;-81
2023/12/13 13:08:14;;;;;;;64.17;31.83;;;;;;;4.66;100.00;99274.73;5153597;55;1141037;-81
2023/12/13 13:13:22;;;;;;;67.47;31.17;;;;;;;4.61;100.00;99258.03;5118181;55;1140888;-81
2023/12/13 13:18:34;;;;;;;70.80;31.70;;;;;;;4.57;100.00;99264.47;5070535;54;1140800;-81
2023/12/13 13:24:08;;;;;;;65.80;33.73;;;;;;;4.53;100.00;99268.24;5001118;57;1140872;-81
2023/12/13 13:29:25;;;;;;;70.05;32.25;;;;;;;4.50;100.00;99269.30;4858914;59;1141085;-81
2023/12/13 13:34:31;;;;;;;64.90;29.77;;;;;;;4.46;100.00;99266.53;4850342;59;1140956;-81
2023/12/13 13:39:38;;;;;;;69.73;32.17;;;;;;;4.40;100.00;99268.77;4847538;59;1140842;-81
2023/12/13 13:44:45;;;;;;;57.70;26.97;;;;;;;4.37;100.00;99275.53;4858653;58;1139033;-81
2023/12/13 13:49:51;;;;;;;77.93;35.87;;;;;;;4.36;100.00;99284.33;4982083;57;1140839;-81
2023/12/13 13:54:57;;;;;;;67.27;32.90;;;;;;;4.34;100.00;99290.14;5019856;57;1141030;-80
2023/12/13 14:00:04;;;;;;;59.77;29.80;;;;;;;4.33;100.00;99295.01;5024129;56;1140657;-80
2023/12/13 14:05:11;;;;;;;77.90;36.80;;;;;;;4.33;100.00;99303.70;5039750;56;1141194;-80
2023/12/13 14:10:17;;;;;;;50.93;25.40;;;;;;;4.32;100.00;99299.87;5020909;57;1141090;-80
2023/12/13 14:15:23;;;;;;;61.68;29.98;;;;;;;4.31;100.00;99304.28;4957607;57;1141044;-80
2023/12/13 14:20:28;;;;;;;67.53;30.50;;;;;;;4.30;100.00;99309.62;5002066;56;1140883;-81
2023/12/13 14:25:34;;;;;;;58.87;25.00;;;;;;;4.29;100.00;99310.56;5056253;57;1141083;-80
2023/12/13 14:30:39;;;;;;;63.73;27.48;;;;;;;4.27;100.00;99304.62;5037261;57;1140991;-80
2023/12/13 14:35:46;;;;;;;72.07;36.67;;;;;;;4.22;100.00;99296.62;5040158;57;1138795;-79
2023/12/13 14:40:51;;;;;;;65.30;33.13;;;;;;;4.21;100.00;99300.18;5048292;57;1140770;-79
2023/12/13 14:45:57;;;;;;;63.20;28.43;;;;;;;4.21;100.00;99313.73;4999010;57;1140965;-78
2023/12/13 14:51:02;;;;;;;106.50;60.07;;;;;;;4.15;100.00;99295.37;5039830;57;1138684;-79
2023/12/13 14:56:10;;;;;;;79.97;37.93;;;;;;;4.12;100.00;99314.39;5059847;57;1141171;-77
2023/12/13 15:01:15;;;;;;;92.63;45.40;;;;;;;4.11;100.00;99326.64;5058911;56;1143205;-79
2023/12/13 15:06:21;;;;;;;678.17;324.52;;;;;;;4.15;100.00;99331.16;5072361;56;1141139;-77
2023/12/13 15:11:27;;;;;;;391.70;159.22;;;;;;;4.18;100.00;99339.64;5002492;56;1145221;-79
2023/12/13 15:16:33;;;;;;;397.03;238.60;;;;;;;4.24;100.00;99354.92;5008802;57;1144910;-79
2023/12/13 15:21:39;;;;;;;82.20;42.00;;;;;;;4.30;100.00;99350.19;4995747;56;1144899;-77
2023/12/13 15:26:45;;;;;;;70.60;35.97;;;;;;;4.28;100.00;99346.87;4980196;56;1140846;-79
2023/12/13 15:31:51;;;;;;;72.57;34.27;;;;;;;4.27;100.00;99360.42;4992225;57;1140911;-79
2023/12/13 15:36:56;;;;;;;61.33;29.95;;;;;;;4.28;100.00;99369.11;4965332;57;1141202;-78
2023/12/13 15:42:03;;;;;;;65.83;32.23;;;;;;;4.29;100.00;99362.43;4976090;57;1141090;-78
2023/12/13 15:47:09;;;;;;;79.87;40.45;;;;;;;4.30;100.00;99355.42;5073884;56;1140915;-77
2023/12/13 15:52:14;;;;;;;294.13;185.10;;;;;;;4.25;100.00;99359.69;5114640;56;1150313;-78
2023/12/13 15:57:21;;;;;;;123.87;83.37;;;;;;;4.22;100.00;99350.73;5050535;56;1145114;-78
2023/12/13 16:02:26;;;;;;;61.92;30.17;;;;;;;4.20;100.00;99356.08;5027717;56;1143068;-78
2023/12/13 16:07:32;;;;;;;61.70;29.90;;;;;;;4.20;100.00;99352.63;5100604;56;1140816;-79
2023/12/13 16:12:38;;;;;;;57.67;28.03;;;;;;;4.19;100.00;99354.88;5081276;56;1140855;-79
2023/12/13 16:17:43;;;;;;;59.50;29.37;;;;;;;4.20;100.00;99360.00;5074981;56;1141157;-78
2023/12/13 16:22:49;;;;;;;59.47;29.03;;;;;;;4.21;100.00;99370.84;5102297;56;1140801;-78
2023/12/13 16:27:54;;;;;;;62.60;31.47;;;;;;;4.22;100.00;99366.44;5010665;56;1141020;-79
2023/12/13 16:33:00;;;;;;;66.27;32.27;;;;;;;4.17;100.00;99373.30;4972138;56;1140807;-78
2023/12/13 16:38:05;;;;;;;58.70;28.90;;;;;;;4.17;100.00;99367.22;5046781;56;1141187;-79
2023/12/13 16:43:13;;;;;;;62.43;34.08;;;;;;;4.15;100.00;99371.72;5074214;56;1140755;-79
2023/12/13 16:48:19;;;;;;;66.97;35.75;;;;;;;4.12;100.00;99366.25;4975980;56;1141135;-79
2023/12/13 16:53:25;;;;;;;61.37;33.30;;;;;;;4.14;100.00;99380.05;5041556;56;1141090;-78
2023/12/13 16:58:30;;;;;;;66.73;33.97;;;;;;;4.17;100.00;99387.69;5016066;57;1140954;-79
2023/12/13 17:03:42;;;;;;;67.97;34.53;;;;;;;4.18;100.00;99397.68;5056384;56;1140841;-79
2023/12/13 17:08:47;;;;;;;64.47;34.17;;;;;;;4.18;100.00;99389.36;5042721;57;1140909;-79
2023/12/13 17:13:54;;;;;;;79.97;41.67;;;;;;;4.22;100.00;99396.06;5039800;56;1141356;-77
2023/12/13 17:18:59;;;;;;;61.57;32.30;;;;;;;4.22;100.00;99399.16;5047229;56;1140777;-79
2023/12/13 17:24:05;;;;;;;63.80;34.20;;;;;;;4.20;100.00;99400.56;5041829;56;1140925;-79
2023/12/13 17:29:12;;;;;;;63.80;31.40;;;;;;;4.17;100.00;99396.84;5037601;56;1168156;-79
2023/12/13 17:34:23;;;;;;;66.33;37.15;;;;;;;4.17;100.00;99399.93;5060984;56;1140830;-79
2023/12/13 17:39:24;;;;;;;730.37;477.00;;;;;;;4.17;100.00;99412.55;5047733;57;1141237;-79
2023/12/13 17:44:30;;;;;;;88.17;53.78;;;;;;;4.18;100.00;99413.38;5050639;56;1145140;-79
2023/12/13 17:49:37;;;;;;;96.93;48.97;;;;;;;4.19;100.00;99423.75;5089281;56;1140616;-79
2023/12/13 17:54:43;;;;;;;56.90;28.43;;;;;;;4.22;100.00;99422.23;5055087;56;1140891;-79
2023/12/13 17:59:48;;;;;;;87.37;45.10;;;;;;;4.20;100.00;99427.20;4946747;57;1140826;-79
2023/12/13 18:04:54;;;;;;;128.45;56.92;;;;;;;4.18;100.00;99439.08;5037360;57;1140897;-79
2023/12/13 18:10:01;;;;;;;109.60;47.17;;;;;;;4.17;100.00;99451.80;5015074;56;1142965;-79
2023/12/13 18:15:07;;;;;;;64.20;34.87;;;;;;;4.17;100.00;99451.80;4945793;57;1143161;-79
2023/12/13 18:20:14;;;;;;;63.44;32.36;;;;;;;4.17;100.00;99452.27;4949584;57;1141092;-80
2023/12/13 18:25:20;;;;;;;75.73;38.30;;;;;;;4.13;100.00;99454.25;4826643;58;1140956;-79
2023/12/13 18:30:25;;;;;;;68.80;35.00;;;;;;;4.11;100.00;99454.84;5027056;57;1140685;-79
2023/12/13 18:35:31;;;;;;;53.67;29.07;;;;;;;4.10;100.00;99462.33;4864516;59;1141076;-79
2023/12/13 18:40:37;;;;;;;61.90;30.27;;;;;;;4.12;100.00;99466.16;4827857;59;1140897;-79
2023/12/13 18:45:43;;;;;;;65.43;32.13;;;;;;;4.06;100.00;99470.48;4871555;59;1140906;-79
2023/12/13 18:50:48;;;;;;;60.20;33.07;;;;;;;4.06;100.00;99470.48;4998408;57;1140876;-79
2023/12/13 18:55:54;;;;;;;71.47;34.93;;;;;;;4.11;100.00;99477.56;4886201;59;1140803;-79
2023/12/13 19:00:59;;;;;;;64.00;30.57;;;;;;;4.08;100.00;99482.99;5021304;57;1140907;-79
2023/12/13 19:06:05;;;;;;;72.03;34.27;;;;;;;4.08;100.00;99482.99;4859339;58;1140869;-79
2023/12/13 19:11:11;;;;;;;72.30;34.73;;;;;;;4.06;100.00;99480.95;4834423;59;1140922;-79
2023/12/13 19:16:16;;;;;;;82.00;37.93;;;;;;;4.06;100.00;99488.80;4867636;59;1140886;-80
2023/12/13 19:21:22;;;;;;;82.72;37.10;;;;;;;4.09;100.00;99488.59;4837857;59;1141122;-79
2023/12/13 19:26:28;;;;;;;82.17;36.47;;;;;;;4.07;100.00;99489.16;4821880;59;1150255;-79
2023/12/13 19:31:33;;;;;;;86.73;41.47;;;;;;;4.07;100.00;99495.70;4836410;59;1140983;-81
2023/12/13 19:36:39;;;;;;;88.70;37.17;;;;;;;4.04;100.00;99494.12;4788896;59;1140922;-80
2023/12/13 19:41:44;;;;;;;70.80;31.57;;;;;;;4.02;100.00;99501.23;4779605;60;1141103;-80
2023/12/13 19:46:50;;;;;;;106.53;42.63;;;;;;;3.99;100.00;99505.36;4854683;59;1140724;-79
2023/12/13 19:51:55;;;;;;;81.20;35.38;;;;;;;3.98;100.00;99508.07;4851092;59;1143071;-78
2023/12/13 19:57:01;;;;;;;86.47;37.40;;;;;;;3.97;100.00;99511.66;4843591;58;1140863;-79
2023/12/13 20:02:08;;;;;;;84.20;35.60;;;;;;;3.99;100.00;99523.67;4787383;59;1140968;-80
2023/12/13 20:07:13;;;;;;;78.57;35.13;;;;;;;3.98;100.00;99529.00;4802437;60;1141045;-80
2023/12/13 20:12:19;;;;;;;75.70;32.48;;;;;;;3.97;100.00;99537.82;4784105;60;1150366;-80
2023/12/13 20:17:24;;;;;;;72.30;29.82;;;;;;;3.95;100.00;99535.77;4800843;58;1141096;-80
2023/12/13 20:22:30;;;;;;;70.85;31.95;;;;;;;3.95;100.00;99533.16;4846187;59;1140963;-80
2023/12/13 20:27:43;;;;;;;64.23;31.83;;;;;;;3.94;100.00;99539.33;4761630;58;1140831;-80
2023/12/13 20:33:06;;;;;;;75.60;31.40;;;;;;;3.95;100.00;99535.77;4782107;59;1141062;-81
2023/12/13 20:44:58;;;;;;;79.50;32.73;;;;;;;3.95;100.00;99549.69;4698111;61;1139252;-80
2023/12/13 20:50:06;;;;;;;79.17;36.53;;;;;;;3.96;100.00;99545.30;4728254;61;1138828;-80
2023/12/13 20:55:12;;;;;;;74.00;31.37;;;;;;;3.91;100.00;99547.36;4738458;61;1139112;-80
2023/12/13 21:00:18;;;;;;;72.57;32.20;;;;;;;3.93;100.00;99552.88;4720761;61;1145588;-80
2023/12/13 21:05:23;;;;;;;62.60;27.80;;;;;;;3.93;100.00;99560.72;4728440;60;1141063;-79
2023/12/13 21:10:29;;;;;;;65.83;28.38;;;;;;;3.92;100.00;99549.88;4734058;60;1141079;-80
2023/12/13 21:15:34;;;;;;;73.23;31.90;;;;;;;3.94;100.00;99564.17;4668211;60;1140873;-79
2023/12/13 21:20:40;;;;;;;68.60;30.07;;;;;;;3.89;100.00;99572.31;4776781;58;1141040;-79
2023/12/13 21:25:45;;;;;;;76.27;32.93;;;;;;;3.89;100.00;99572.31;4815507;58;1140873;-79
2023/12/13 21:30:51;;;;;;;69.17;29.67;;;;;;;3.96;100.00;99588.46;4818433;59;1140927;-80
2023/12/13 21:35:57;;;;;;;79.60;36.57;;;;;;;3.97;100.00;99583.13;4867896;59;1140797;-79
2023/12/13 21:41:02;;;;;;;77.93;35.23;;;;;;;3.96;100.00;99599.77;4797827;59;1138864;-79
2023/12/13 21:46:08;;;;;;;58.90;29.10;;;;;;;3.95;100.00;99609.86;4807496;59;1139004;-79
2023/12/13 21:51:13;;;;;;;54.73;26.23;;;;;;;3.89;100.00;99620.70;4853616;59;1138677;-79
2023/12/13 21:56:20;;;;;;;56.13;27.70;;;;;;;3.86;100.00;99631.35;4803091;59;1148453;-79
2023/12/13 22:01:25;;;;;;;47.23;23.67;;;;;;;3.86;100.00;99644.44;4783910;58;1140758;-80
2023/12/13 22:06:31;;;;;;;44.98;24.65;;;;;;;3.85;100.00;99648.82;4782081;60;1140611;-80
2023/12/13 22:11:37;;;;;;;54.37;27.43;;;;;;;3.87;100.00;99655.27;4828367;58;1140669;-80
2023/12/13 22:16:42;;;;;;;49.70;25.27;;;;;;;3.88;100.00;99661.71;4876161;58;1140877;-80
2023/12/13 22:21:49;;;;;;;55.53;26.17;;;;;;;3.86;100.00;99658.35;4834297;58;1140867;-80
2023/12/13 22:26:55;;;;;;;56.77;28.17;;;;;;;3.82;100.00;99663.39;4930595;58;1140992;-80
2023/12/13 22:32:00;;;;;;;64.73;29.23;;;;;;;3.78;100.00;99666.33;4894897;58;1141003;-80
2023/12/13 22:37:06;;;;;;;56.33;26.67;;;;;;;3.74;100.00;99675.30;4981573;57;1138859;-79
2023/12/13 22:42:11;;;;;;;63.25;28.65;;;;;;;3.75;100.00;99680.43;4970695;56;1140896;-80
2023/12/13 22:47:19;;;;;;;57.30;27.48;;;;;;;3.71;100.00;99692.48;5078241;57;1138844;-80
2023/12/13 22:52:26;;;;;;;49.03;23.27;;;;;;;3.65;100.00;99696.34;5057757;56;1140950;-80
2023/12/13 22:57:31;;;;;;;65.20;26.60;;;;;;;3.58;100.00;99699.41;5060906;56;1138780;-80
2023/12/13 23:02:37;;;;;;;56.17;26.47;;;;;;;3.58;100.00;99699.41;5081149;56;1140926;-81